Como, TN (38223)

1:09 PM CDT on August 24, 2016 (GMT -0500)
54 Lawn | | Change Station

Elev 499 ft 36.29 °N, 88.42 °W | Updated 1 second ago

Scattered Clouds
Scattered Clouds
90.3 °F
Feels Like 106 °F
N
0.9
Wind Variable Wind from SE
Gusts 6.0 mph

Today
High -- | Low -- °F
--% Chance of Precip.
Yesterday
High -- | Low -- °F
Precip. -- in
Pressure 30.15 in
Visibility 10.0 miles
Clouds Scattered Clouds 3100 ft
Heat Index 106 °F
Dew Point 79 °F
Humidity 69%
Rainfall 0.00 in
Snow Depth Not available.
6:19 AM 7:32 PM
Waning Gibbous, 55% visible
METAR KCEY 241755Z AUTO 21009KT 10SM SCT031 31/24 A3015 RMK AO1
Pressure 30.15 in
Visibility 10.0 miles
Clouds Scattered Clouds 3100 ft
Heat Index 106 °F
Dew Point 79 °F
Humidity 69%
Rainfall 0.00 in
Snow Depth Not available.
6:19 AM 7:32 PM
Waning Gibbous, 55% visible
METAR KCEY 241755Z AUTO 21009KT 10SM SCT031 31/24 A3015 RMK AO1

10-Day Weather Forecast

Almanac

Astronomy

Aug. 24, 2016 Rise Set
Actual Time
Civil Twilight
Nautical Twilight
Astronomical Twilight
Moon
Length of Visible Light
Length of Day
Tomorrow will be .
, % of the Moon is Illuminated

Today's Extremes

State Highs State Lows

Community

WunderPhotos

Upload Photos

1,934,662 photos uploaded!

WunderBlog® & News

Nearby

Air Quality

  Air Quality AQ Index Pollutant
Not available.

Snow Depth

Station Depth Elevation

Earthquake Activity

City Distance Mag. Time & Date
Minimum magnitude displayed is 2.5.

Coastal Water Temperatures

Place Temperature

Stations

Nearby Weather Stations

Station Location Temp. Windchill Dew Point Humidity Wind Precip. Elev Updated Type
                   

Watches & Warnings

There are currently no watches in effect.